sensor_id;sensor_type;location;lat;lon;timestamp;temperature;humidity
43346;DHT22;28937;51.160;4.146;2022-09-12T00:00:32;21.30;93.00
43346;DHT22;28937;51.160;4.146;2022-09-12T00:02:58;21.20;93.00
43346;DHT22;28937;51.160;4.146;2022-09-12T00:05:24;21.20;93.10
43346;DHT22;28937;51.160;4.146;2022-09-12T00:07:50;21.20;93.10
43346;DHT22;28937;51.160;4.146;2022-09-12T00:10:16;21.20;93.10
43346;DHT22;28937;51.160;4.146;2022-09-12T00:12:42;21.20;93.10
43346;DHT22;28937;51.160;4.146;2022-09-12T00:15:08;21.10;93.20
43346;DHT22;28937;51.160;4.146;2022-09-12T00:17:35;21.20;93.20
43346;DHT22;28937;51.160;4.146;2022-09-12T00:20:02;21.10;93.20
43346;DHT22;28937;51.160;4.146;2022-09-12T00:22:28;21.10;93.20
43346;DHT22;28937;51.160;4.146;2022-09-12T00:24:53;21.10;93.20
43346;DHT22;28937;51.160;4.146;2022-09-12T00:27:19;21.10;93.30
43346;DHT22;28937;51.160;4.146;2022-09-12T00:29:44;21.10;93.30
43346;DHT22;28937;51.160;4.146;2022-09-12T00:32:10;21.10;93.30
43346;DHT22;28937;51.160;4.146;2022-09-12T00:34:35;21.10;93.40
43346;DHT22;28937;51.160;4.146;2022-09-12T00:37:02;21.00;93.40
43346;DHT22;28937;51.160;4.146;2022-09-12T00:39:27;21.00;93.40
43346;DHT22;28937;51.160;4.146;2022-09-12T00:41:53;21.00;93.40
43346;DHT22;28937;51.160;4.146;2022-09-12T00:49:34;20.90;93.60
43346;DHT22;28937;51.160;4.146;2022-09-12T00:52:23;21.00;93.60
43346;DHT22;28937;51.160;4.146;2022-09-12T00:55:21;20.90;93.70
43346;DHT22;28937;51.160;4.146;2022-09-12T01:00:20;20.90;93.70
43346;DHT22;28937;51.160;4.146;2022-09-12T01:02:50;20.90;93.70
43346;DHT22;28937;51.160;4.146;2022-09-12T01:05:17;20.80;93.80
43346;DHT22;28937;51.160;4.146;2022-09-12T01:07:44;20.80;93.80
43346;DHT22;28937;51.160;4.146;2022-09-12T01:10:13;20.80;93.90
43346;DHT22;28937;51.160;4.146;2022-09-12T01:12:40;20.80;94.10
43346;DHT22;28937;51.160;4.146;2022-09-12T01:15:07;20.80;94.00
43346;DHT22;28937;51.160;4.146;2022-09-12T01:18:05;20.80;94.10
43346;DHT22;28937;51.160;4.146;2022-09-12T01:24:14;20.80;94.00
43346;DHT22;28937;51.160;4.146;2022-09-12T01:27:10;20.80;94.10
43346;DHT22;28937;51.160;4.146;2022-09-12T01:32:21;20.70;94.10
43346;DHT22;28937;51.160;4.146;2022-09-12T01:35:04;20.70;94.10
43346;DHT22;28937;51.160;4.146;2022-09-12T01:38:02;20.70;94.20
43346;DHT22;28937;51.160;4.146;2022-09-12T01:41:34;20.70;94.30
43346;DHT22;28937;51.160;4.146;2022-09-12T01:43:53;20.70;94.30
43346;DHT22;28937;51.160;4.146;2022-09-12T01:46:33;20.70;94.30
43346;DHT22;28937;51.160;4.146;2022-09-12T01:49:37;20.70;94.30
43346;DHT22;28937;51.160;4.146;2022-09-12T01:52:14;20.60;94.40
43346;DHT22;28937;51.160;4.146;2022-09-12T01:54:54;20.60;94.30
43346;DHT22;28937;51.160;4.146;2022-09-12T01:57:28;20.60;94.40
43346;DHT22;28937;51.160;4.146;2022-09-12T02:00:00;20.60;94.70
43346;DHT22;28937;51.160;4.146;2022-09-12T02:02:42;20.60;94.50
43346;DHT22;28937;51.160;4.146;2022-09-12T02:05:46;20.60;94.50
43346;DHT22;28937;51.160;4.146;2022-09-12T02:08:19;20.50;94.60
43346;DHT22;28937;51.160;4.146;2022-09-12T02:10:51;20.60;94.60
43346;DHT22;28937;51.160;4.146;2022-09-12T02:13:21;20.50;94.60
43346;DHT22;28937;51.160;4.146;2022-09-12T02:15:52;20.50;94.70
43346;DHT22;28937;51.160;4.146;2022-09-12T02:18:20;20.50;94.70
43346;DHT22;28937;51.160;4.146;2022-09-12T02:20:47;20.60;94.70
43346;DHT22;28937;51.160;4.146;2022-09-12T02:23:17;20.50;94.70
43346;DHT22;28937;51.160;4.146;2022-09-12T02:25:46;20.50;94.80
43346;DHT22;28937;51.160;4.146;2022-09-12T02:28:15;20.50;94.80
43346;DHT22;28937;51.160;4.146;2022-09-12T02:30:54;20.50;94.80
43346;DHT22;28937;51.160;4.146;2022-09-12T02:36:29;20.50;94.90
43346;DHT22;28937;51.160;4.146;2022-09-12T02:38:57;20.40;94.90
43346;DHT22;28937;51.160;4.146;2022-09-12T02:41:23;20.40;94.90
43346;DHT22;28937;51.160;4.146;2022-09-12T02:43:50;20.40;95.00
43346;DHT22;28937;51.160;4.146;2022-09-12T02:46:21;20.40;95.00
43346;DHT22;28937;51.160;4.146;2022-09-12T02:48:48;20.40;95.00
43346;DHT22;28937;51.160;4.146;2022-09-12T02:51:14;20.40;95.00
43346;DHT22;28937;51.160;4.146;2022-09-12T02:53:40;20.40;95.00
43346;DHT22;28937;51.160;4.146;2022-09-12T02:56:11;20.50;95.00
43346;DHT22;28937;51.160;4.146;2022-09-12T02:58:38;20.40;95.00
43346;DHT22;28937;51.160;4.146;2022-09-12T03:01:24;20.50;95.00
43346;DHT22;28937;51.160;4.146;2022-09-12T03:06:50;20.30;95.10
43346;DHT22;28937;51.160;4.146;2022-09-12T03:09:45;20.20;95.20
43346;DHT22;28937;51.160;4.146;2022-09-12T03:20:18;20.30;95.30
43346;DHT22;28937;51.160;4.146;2022-09-12T03:22:53;20.30;95.20
43346;DHT22;28937;51.160;4.146;2022-09-12T03:27:56;20.20;95.20
43346;DHT22;28937;51.160;4.146;2022-09-12T03:30:24;20.30;95.20
43346;DHT22;28937;51.160;4.146;2022-09-12T03:32:51;20.20;95.20
43346;DHT22;28937;51.160;4.146;2022-09-12T03:35:19;20.20;95.20
43346;DHT22;28937;51.160;4.146;2022-09-12T03:37:47;20.20;95.30
43346;DHT22;28937;51.160;4.146;2022-09-12T03:40:13;20.20;95.30
43346;DHT22;28937;51.160;4.146;2022-09-12T03:42:40;20.20;95.30
43346;DHT22;28937;51.160;4.146;2022-09-12T03:45:07;20.20;95.30
43346;DHT22;28937;51.160;4.146;2022-09-12T03:47:33;20.20;95.30
43346;DHT22;28937;51.160;4.146;2022-09-12T03:49:59;20.10;95.30
43346;DHT22;28937;51.160;4.146;2022-09-12T03:52:25;20.10;95.40
43346;DHT22;28937;51.160;4.146;2022-09-12T03:54:51;20.20;95.40
43346;DHT22;28937;51.160;4.146;2022-09-12T03:57:16;20.20;95.40
43346;DHT22;28937;51.160;4.146;2022-09-12T03:59:42;20.10;95.40
43346;DHT22;28937;51.160;4.146;2022-09-12T04:02:08;20.10;95.50
43346;DHT22;28937;51.160;4.146;2022-09-12T04:04:37;20.10;95.50
43346;DHT22;28937;51.160;4.146;2022-09-12T04:07:02;20.10;95.50
43346;DHT22;28937;51.160;4.146;2022-09-12T04:09:28;20.10;95.50
43346;DHT22;28937;51.160;4.146;2022-09-12T04:11:53;20.10;95.50
43346;DHT22;28937;51.160;4.146;2022-09-12T04:14:19;20.10;95.50
43346;DHT22;28937;51.160;4.146;2022-09-12T04:16:44;20.00;95.50
43346;DHT22;28937;51.160;4.146;2022-09-12T04:19:10;20.10;95.50
43346;DHT22;28937;51.160;4.146;2022-09-12T04:21:36;20.00;95.50
43346;DHT22;28937;51.160;4.146;2022-09-12T04:24:02;20.00;95.60
43346;DHT22;28937;51.160;4.146;2022-09-12T04:26:28;20.00;95.60
43346;DHT22;28937;51.160;4.146;2022-09-12T04:28:54;20.00;95.70
43346;DHT22;28937;51.160;4.146;2022-09-12T04:31:22;19.90;95.70
43346;DHT22;28937;51.160;4.146;2022-09-12T04:33:58;19.90;95.70
43346;DHT22;28937;51.160;4.146;2022-09-12T04:36:26;20.00;95.80
43346;DHT22;28937;51.160;4.146;2022-09-12T04:38:52;20.00;95.70
43346;DHT22;28937;51.160;4.146;2022-09-12T04:43:47;20.00;95.70
43346;DHT22;28937;51.160;4.146;2022-09-12T04:46:16;20.00;95.20
43346;DHT22;28937;51.160;4.146;2022-09-12T04:48:44;20.00;95.00
43346;DHT22;28937;51.160;4.146;2022-09-12T04:51:15;20.10;95.00
43346;DHT22;28937;51.160;4.146;2022-09-12T04:53:42;20.10;94.80
43346;DHT22;28937;51.160;4.146;2022-09-12T04:56:09;20.10;94.80
43346;DHT22;28937;51.160;4.146;2022-09-12T04:58:36;20.10;94.80
43346;DHT22;28937;51.160;4.146;2022-09-12T05:01:11;20.10;94.80
43346;DHT22;28937;51.160;4.146;2022-09-12T05:03:37;20.00;95.20
43346;DHT22;28937;51.160;4.146;2022-09-12T05:06:08;20.00;95.30
43346;DHT22;28937;51.160;4.146;2022-09-12T05:08:34;19.90;95.40
43346;DHT22;28937;51.160;4.146;2022-09-12T05:11:04;19.90;95.50
43346;DHT22;28937;51.160;4.146;2022-09-12T05:13:31;19.90;95.40
43346;DHT22;28937;51.160;4.146;2022-09-12T05:15:58;19.90;95.40
43346;DHT22;28937;51.160;4.146;2022-09-12T05:18:24;19.90;95.50
43346;DHT22;28937;51.160;4.146;2022-09-12T05:20:54;19.80;95.50
43346;DHT22;28937;51.160;4.146;2022-09-12T05:23:20;19.80;95.50
43346;DHT22;28937;51.160;4.146;2022-09-12T05:25:50;19.80;95.50
43346;DHT22;28937;51.160;4.146;2022-09-12T05:28:17;19.80;95.50
43346;DHT22;28937;51.160;4.146;2022-09-12T05:30:43;19.80;95.50
43346;DHT22;28937;51.160;4.146;2022-09-12T05:33:09;19.80;95.60
43346;DHT22;28937;51.160;4.146;2022-09-12T05:35:34;19.80;95.60
43346;DHT22;28937;51.160;4.146;2022-09-12T05:38:02;19.80;95.50
43346;DHT22;28937;51.160;4.146;2022-09-12T05:40:28;19.80;95.60
43346;DHT22;28937;51.160;4.146;2022-09-12T05:42:54;19.80;95.60
43346;DHT22;28937;51.160;4.146;2022-09-12T05:45:19;19.80;95.60
43346;DHT22;28937;51.160;4.146;2022-09-12T05:47:46;19.80;95.50
43346;DHT22;28937;51.160;4.146;2022-09-12T05:50:11;19.80;95.60
43346;DHT22;28937;51.160;4.146;2022-09-12T05:52:37;19.80;95.70
43346;DHT22;28937;51.160;4.146;2022-09-12T05:55:03;19.80;95.60
43346;DHT22;28937;51.160;4.146;2022-09-12T05:57:29;19.80;95.70
43346;DHT22;28937;51.160;4.146;2022-09-12T05:59:55;19.80;95.80
43346;DHT22;28937;51.160;4.146;2022-09-12T06:02:20;19.80;95.90
43346;DHT22;28937;51.160;4.146;2022-09-12T06:04:46;19.80;96.00
43346;DHT22;28937;51.160;4.146;2022-09-12T06:07:12;19.80;96.00
43346;DHT22;28937;51.160;4.146;2022-09-12T06:09:37;19.80;96.10
43346;DHT22;28937;51.160;4.146;2022-09-12T06:12:03;19.80;96.00
43346;DHT22;28937;51.160;4.146;2022-09-12T06:14:29;19.90;96.00
43346;DHT22;28937;51.160;4.146;2022-09-12T06:16:55;19.90;96.10
43346;DHT22;28937;51.160;4.146;2022-09-12T06:19:21;19.90;96.20
43346;DHT22;28937;51.160;4.146;2022-09-12T06:21:51;19.90;96.30
43346;DHT22;28937;51.160;4.146;2022-09-12T06:24:19;19.90;96.50
43346;DHT22;28937;51.160;4.146;2022-09-12T06:26:46;19.90;96.70
43346;DHT22;28937;51.160;4.146;2022-09-12T06:29:12;19.90;96.60
43346;DHT22;28937;51.160;4.146;2022-09-12T06:31:39;19.90;96.50
43346;DHT22;28937;51.160;4.146;2022-09-12T06:34:09;19.90;96.40
43346;DHT22;28937;51.160;4.146;2022-09-12T06:36:40;19.90;96.40
43346;DHT22;28937;51.160;4.146;2022-09-12T06:39:11;19.90;96.70
43346;DHT22;28937;51.160;4.146;2022-09-12T06:41:37;20.00;96.50
43346;DHT22;28937;51.160;4.146;2022-09-12T06:44:03;19.90;96.60
43346;DHT22;28937;51.160;4.146;2022-09-12T06:46:29;20.00;96.50
43346;DHT22;28937;51.160;4.146;2022-09-12T06:48:56;20.00;96.80
43346;DHT22;28937;51.160;4.146;2022-09-12T06:51:22;20.00;96.70
43346;DHT22;28937;51.160;4.146;2022-09-12T06:53:48;20.00;96.70
43346;DHT22;28937;51.160;4.146;2022-09-12T06:56:19;20.00;96.70
43346;DHT22;28937;51.160;4.146;2022-09-12T06:58:46;20.00;96.80
43346;DHT22;28937;51.160;4.146;2022-09-12T07:01:26;20.00;96.80
43346;DHT22;28937;51.160;4.146;2022-09-12T07:03:59;20.00;96.80
43346;DHT22;28937;51.160;4.146;2022-09-12T07:06:27;20.00;96.80
43346;DHT22;28937;51.160;4.146;2022-09-12T07:09:00;20.00;96.80
43346;DHT22;28937;51.160;4.146;2022-09-12T07:11:29;20.10;96.90
43346;DHT22;28937;51.160;4.146;2022-09-12T07:13:58;20.10;96.80
43346;DHT22;28937;51.160;4.146;2022-09-12T07:16:24;20.10;96.90
43346;DHT22;28937;51.160;4.146;2022-09-12T07:18:58;20.10;96.90
43346;DHT22;28937;51.160;4.146;2022-09-12T07:21:23;20.10;96.90
43346;DHT22;28937;51.160;4.146;2022-09-12T07:23:49;20.20;97.00
43346;DHT22;28937;51.160;4.146;2022-09-12T07:26:23;20.20;97.00
43346;DHT22;28937;51.160;4.146;2022-09-12T07:28:53;20.20;97.20
43346;DHT22;28937;51.160;4.146;2022-09-12T07:31:23;20.20;97.10
43346;DHT22;28937;51.160;4.146;2022-09-12T07:33:49;20.20;96.90
43346;DHT22;28937;51.160;4.146;2022-09-12T07:36:18;20.20;97.10
43346;DHT22;28937;51.160;4.146;2022-09-12T07:38:44;20.20;97.10
43346;DHT22;28937;51.160;4.146;2022-09-12T07:41:22;20.30;97.10
43346;DHT22;28937;51.160;4.146;2022-09-12T07:43:52;20.20;97.00
43346;DHT22;28937;51.160;4.146;2022-09-12T07:46:18;20.20;96.90
43346;DHT22;28937;51.160;4.146;2022-09-12T07:48:48;20.30;96.80
43346;DHT22;28937;51.160;4.146;2022-09-12T07:51:15;20.40;96.70
43346;DHT22;28937;51.160;4.146;2022-09-12T07:53:42;20.40;96.70
43346;DHT22;28937;51.160;4.146;2022-09-12T07:56:12;20.40;96.90
43346;DHT22;28937;51.160;4.146;2022-09-12T07:58:39;20.40;96.60
43346;DHT22;28937;51.160;4.146;2022-09-12T08:01:10;20.50;96.60
43346;DHT22;28937;51.160;4.146;2022-09-12T08:03:41;20.50;96.50
43346;DHT22;28937;51.160;4.146;2022-09-12T08:06:09;20.60;96.40
43346;DHT22;28937;51.160;4.146;2022-09-12T08:08:36;20.60;96.40
43346;DHT22;28937;51.160;4.146;2022-09-12T08:11:05;20.60;96.30
43346;DHT22;28937;51.160;4.146;2022-09-12T08:13:32;20.60;96.30
43346;DHT22;28937;51.160;4.146;2022-09-12T08:15:59;20.70;96.30
43346;DHT22;28937;51.160;4.146;2022-09-12T08:18:26;20.70;96.30
43346;DHT22;28937;51.160;4.146;2022-09-12T08:20:57;20.70;96.30
43346;DHT22;28937;51.160;4.146;2022-09-12T08:23:22;20.70;96.20
43346;DHT22;28937;51.160;4.146;2022-09-12T08:25:49;20.80;96.00
43346;DHT22;28937;51.160;4.146;2022-09-12T08:28:15;20.80;95.90
43346;DHT22;28937;51.160;4.146;2022-09-12T08:30:40;20.80;95.80
43346;DHT22;28937;51.160;4.146;2022-09-12T08:33:06;20.80;95.80
43346;DHT22;28937;51.160;4.146;2022-09-12T08:35:32;20.80;95.70
43346;DHT22;28937;51.160;4.146;2022-09-12T08:37:58;20.80;95.70
43346;DHT22;28937;51.160;4.146;2022-09-12T08:40:23;20.80;95.50
43346;DHT22;28937;51.160;4.146;2022-09-12T08:42:57;20.90;95.50
43346;DHT22;28937;51.160;4.146;2022-09-12T08:45:37;20.90;95.40
43346;DHT22;28937;51.160;4.146;2022-09-12T08:48:08;20.90;95.50
43346;DHT22;28937;51.160;4.146;2022-09-12T08:50:35;20.90;95.40
43346;DHT22;28937;51.160;4.146;2022-09-12T08:53:02;20.90;95.30
43346;DHT22;28937;51.160;4.146;2022-09-12T08:57:56;21.00;95.40
43346;DHT22;28937;51.160;4.146;2022-09-12T09:00:27;21.00;95.70
43346;DHT22;28937;51.160;4.146;2022-09-12T09:06:30;21.10;95.40
43346;DHT22;28937;51.160;4.146;2022-09-12T09:09:10;21.10;95.20
43346;DHT22;28937;51.160;4.146;2022-09-12T09:11:44;21.10;95.00
43346;DHT22;28937;51.160;4.146;2022-09-12T09:17:47;21.10;95.30
43346;DHT22;28937;51.160;4.146;2022-09-12T09:23:28;21.10;95.20
43346;DHT22;28937;51.160;4.146;2022-09-12T09:26:14;21.20;95.10
43346;DHT22;28937;51.160;4.146;2022-09-12T09:31:23;21.20;95.00
43346;DHT22;28937;51.160;4.146;2022-09-12T09:33:50;21.20;95.00
43346;DHT22;28937;51.160;4.146;2022-09-12T09:36:39;21.20;94.90
43346;DHT22;28937;51.160;4.146;2022-09-12T09:39:30;21.30;94.90
43346;DHT22;28937;51.160;4.146;2022-09-12T09:44:59;21.30;94.80
43346;DHT22;28937;51.160;4.146;2022-09-12T09:47:26;21.40;94.70
43346;DHT22;28937;51.160;4.146;2022-09-12T09:49:52;21.40;94.60
43346;DHT22;28937;51.160;4.146;2022-09-12T09:52:24;21.40;94.50
43346;DHT22;28937;51.160;4.146;2022-09-12T09:54:58;21.40;94.50
43346;DHT22;28937;51.160;4.146;2022-09-12T10:00:19;21.40;94.00
43346;DHT22;28937;51.160;4.146;2022-09-12T10:05:27;21.50;94.40
43346;DHT22;28937;51.160;4.146;2022-09-12T10:07:53;21.50;94.30
43346;DHT22;28937;51.160;4.146;2022-09-12T10:10:19;21.50;94.40
43346;DHT22;28937;51.160;4.146;2022-09-12T10:12:48;21.50;94.40
43346;DHT22;28937;51.160;4.146;2022-09-12T10:15:18;21.50;94.30
43346;DHT22;28937;51.160;4.146;2022-09-12T10:17:46;21.50;94.30
43346;DHT22;28937;51.160;4.146;2022-09-12T10:20:43;21.50;94.30
43346;DHT22;28937;51.160;4.146;2022-09-12T10:26:13;21.60;93.90
43346;DHT22;28937;51.160;4.146;2022-09-12T10:29:02;21.60;94.20
43346;DHT22;28937;51.160;4.146;2022-09-12T10:31:35;21.60;94.30
43346;DHT22;28937;51.160;4.146;2022-09-12T10:34:25;21.60;94.30
43346;DHT22;28937;51.160;4.146;2022-09-12T10:36:58;21.60;93.90
43346;DHT22;28937;51.160;4.146;2022-09-12T10:39:25;21.70;93.40
43346;DHT22;28937;51.160;4.146;2022-09-12T10:41:50;21.70;94.10
43346;DHT22;28937;51.160;4.146;2022-09-12T10:44:23;21.80;94.10
43346;DHT22;28937;51.160;4.146;2022-09-12T10:46:52;21.70;94.00
43346;DHT22;28937;51.160;4.146;2022-09-12T10:49:24;21.70;94.00
43346;DHT22;28937;51.160;4.146;2022-09-12T10:51:52;21.70;94.10
43346;DHT22;28937;51.160;4.146;2022-09-12T10:54:20;21.80;93.60
43346;DHT22;28937;51.160;4.146;2022-09-12T11:00:07;21.80;93.80
43346;DHT22;28937;51.160;4.146;2022-09-12T11:14:27;21.80;93.30
43346;DHT22;28937;51.160;4.146;2022-09-12T11:17:15;21.90;93.40
43346;DHT22;28937;51.160;4.146;2022-09-12T11:19:56;21.90;93.30
43346;DHT22;28937;51.160;4.146;2022-09-12T11:25:22;21.90;93.10
43346;DHT22;28937;51.160;4.146;2022-09-12T11:31:25;22.00;92.60
43346;DHT22;28937;51.160;4.146;2022-09-12T11:33:54;22.00;92.90
43346;DHT22;28937;51.160;4.146;2022-09-12T11:39:18;22.00;92.80
43346;DHT22;28937;51.160;4.146;2022-09-12T11:41:55;22.00;92.80
43346;DHT22;28937;51.160;4.146;2022-09-12T11:44:34;22.00;92.70
43346;DHT22;28937;51.160;4.146;2022-09-12T11:47:04;22.00;92.80
43346;DHT22;28937;51.160;4.146;2022-09-12T11:49:35;22.10;92.70
43346;DHT22;28937;51.160;4.146;2022-09-12T11:52:25;22.10;92.80
43346;DHT22;28937;51.160;4.146;2022-09-12T11:55:05;22.10;92.70
43346;DHT22;28937;51.160;4.146;2022-09-12T11:57:40;22.10;92.70
43346;DHT22;28937;51.160;4.146;2022-09-12T12:00:21;22.10;92.70
43346;DHT22;28937;51.160;4.146;2022-09-12T12:05:50;22.10;92.40
43346;DHT22;28937;51.160;4.146;2022-09-12T12:08:20;22.20;92.60
43346;DHT22;28937;51.160;4.146;2022-09-12T12:10:57;22.20;92.60
43346;DHT22;28937;51.160;4.146;2022-09-12T12:13:30;22.20;92.60
43346;DHT22;28937;51.160;4.146;2022-09-12T12:16:06;22.20;92.60
43346;DHT22;28937;51.160;4.146;2022-09-12T12:18:35;22.30;92.60
43346;DHT22;28937;51.160;4.146;2022-09-12T12:21:39;22.20;92.60
43346;DHT22;28937;51.160;4.146;2022-09-12T12:29:35;22.30;92.40
43346;DHT22;28937;51.160;4.146;2022-09-12T12:34:32;22.40;92.30
43346;DHT22;28937;51.160;4.146;2022-09-12T12:50:04;22.50;91.30
43346;DHT22;28937;51.160;4.146;2022-09-12T12:52:32;22.50;91.70
43346;DHT22;28937;51.160;4.146;2022-09-12T12:55:14;22.50;91.90
43346;DHT22;28937;51.160;4.146;2022-09-12T12:57:55;22.50;92.00
43346;DHT22;28937;51.160;4.146;2022-09-12T13:05:38;22.50;92.00
43346;DHT22;28937;51.160;4.146;2022-09-12T13:08:29;22.60;91.30
43346;DHT22;28937;51.160;4.146;2022-09-12T13:10:58;22.60;90.50
43346;DHT22;28937;51.160;4.146;2022-09-12T13:13:34;22.60;91.60
43346;DHT22;28937;51.160;4.146;2022-09-12T13:16:00;22.60;91.80
43346;DHT22;28937;51.160;4.146;2022-09-12T13:18:26;22.60;91.80
43346;DHT22;28937;51.160;4.146;2022-09-12T13:21:02;22.60;91.50
43346;DHT22;28937;51.160;4.146;2022-09-12T13:23:30;22.60;91.30
43346;DHT22;28937;51.160;4.146;2022-09-12T13:25:58;22.70;91.70
43346;DHT22;28937;51.160;4.146;2022-09-12T13:28:26;22.60;91.80
43346;DHT22;28937;51.160;4.146;2022-09-12T13:33:39;22.70;91.70
43346;DHT22;28937;51.160;4.146;2022-09-12T13:36:19;22.70;91.70
43346;DHT22;28937;51.160;4.146;2022-09-12T13:44:19;22.80;91.60
43346;DHT22;28937;51.160;4.146;2022-09-12T13:46:46;22.80;91.50
43346;DHT22;28937;51.160;4.146;2022-09-12T13:49:28;22.70;91.40
43346;DHT22;28937;51.160;4.146;2022-09-12T13:52:02;22.80;91.40
43346;DHT22;28937;51.160;4.146;2022-09-12T13:54:28;22.80;91.40
43346;DHT22;28937;51.160;4.146;2022-09-12T13:56:54;22.80;91.20
43346;DHT22;28937;51.160;4.146;2022-09-12T13:59:20;22.80;91.30
43346;DHT22;28937;51.160;4.146;2022-09-12T14:01:46;22.80;91.30
43346;DHT22;28937;51.160;4.146;2022-09-12T14:04:19;22.80;91.10
43346;DHT22;28937;51.160;4.146;2022-09-12T14:07:16;22.80;91.20
43346;DHT22;28937;51.160;4.146;2022-09-12T14:09:44;22.90;91.10
43346;DHT22;28937;51.160;4.146;2022-09-12T14:12:14;22.90;91.00
43346;DHT22;28937;51.160;4.146;2022-09-12T14:14:42;22.90;90.90
43346;DHT22;28937;51.160;4.146;2022-09-12T14:17:21;23.00;91.00
43346;DHT22;28937;51.160;4.146;2022-09-12T14:19:48;23.00;90.70
43346;DHT22;28937;51.160;4.146;2022-09-12T14:22:14;23.00;90.70
43346;DHT22;28937;51.160;4.146;2022-09-12T14:24:51;23.00;90.70
43346;DHT22;28937;51.160;4.146;2022-09-12T14:27:21;23.00;90.80
43346;DHT22;28937;51.160;4.146;2022-09-12T14:29:49;23.00;90.70
43346;DHT22;28937;51.160;4.146;2022-09-12T14:32:27;23.00;90.70
43346;DHT22;28937;51.160;4.146;2022-09-12T14:37:37;23.00;90.70
43346;DHT22;28937;51.160;4.146;2022-09-12T14:40:17;23.00;90.50
43346;DHT22;28937;51.160;4.146;2022-09-12T14:42:43;23.10;90.60
43346;DHT22;28937;51.160;4.146;2022-09-12T14:45:22;23.10;90.60
43346;DHT22;28937;51.160;4.146;2022-09-12T14:47:49;23.10;90.60
43346;DHT22;28937;51.160;4.146;2022-09-12T14:50:25;23.10;90.50
43346;DHT22;28937;51.160;4.146;2022-09-12T14:56:07;23.10;90.30
43346;DHT22;28937;51.160;4.146;2022-09-12T14:58:31;23.10;90.30
43346;DHT22;28937;51.160;4.146;2022-09-12T15:06:26;23.20;90.10
43346;DHT22;28937;51.160;4.146;2022-09-12T15:08:53;23.20;90.20
43346;DHT22;28937;51.160;4.146;2022-09-12T15:11:19;23.20;90.30
43346;DHT22;28937;51.160;4.146;2022-09-12T15:13:45;23.20;90.20
43346;DHT22;28937;51.160;4.146;2022-09-12T15:16:11;23.20;90.20
43346;DHT22;28937;51.160;4.146;2022-09-12T15:18:37;23.20;90.20
43346;DHT22;28937;51.160;4.146;2022-09-12T15:21:05;23.20;90.00
43346;DHT22;28937;51.160;4.146;2022-09-12T15:23:36;23.30;90.00
43346;DHT22;28937;51.160;4.146;2022-09-12T15:26:05;23.30;89.90
43346;DHT22;28937;51.160;4.146;2022-09-12T15:28:31;23.30;90.00
43346;DHT22;28937;51.160;4.146;2022-09-12T15:31:00;23.30;90.00
43346;DHT22;28937;51.160;4.146;2022-09-12T15:33:27;23.30;89.80
43346;DHT22;28937;51.160;4.146;2022-09-12T15:35:52;23.30;89.90
43346;DHT22;28937;51.160;4.146;2022-09-12T15:38:18;23.30;90.00
43346;DHT22;28937;51.160;4.146;2022-09-12T15:40:44;23.40;89.80
43346;DHT22;28937;51.160;4.146;2022-09-12T15:43:17;23.30;89.80
43346;DHT22;28937;51.160;4.146;2022-09-12T15:45:43;23.40;89.90
43346;DHT22;28937;51.160;4.146;2022-09-12T15:48:09;23.40;90.00
43346;DHT22;28937;51.160;4.146;2022-09-12T15:50:34;23.40;90.00
43346;DHT22;28937;51.160;4.146;2022-09-12T15:53:00;23.40;90.00
43346;DHT22;28937;51.160;4.146;2022-09-12T15:55:30;23.40;89.90
43346;DHT22;28937;51.160;4.146;2022-09-12T15:57:57;23.40;90.00
43346;DHT22;28937;51.160;4.146;2022-09-12T16:00:23;23.40;90.10
43346;DHT22;28937;51.160;4.146;2022-09-12T16:02:51;23.40;90.00
43346;DHT22;28937;51.160;4.146;2022-09-12T16:05:24;23.40;90.00
43346;DHT22;28937;51.160;4.146;2022-09-12T16:07:52;23.40;90.10
43346;DHT22;28937;51.160;4.146;2022-09-12T16:10:20;23.40;90.20
43346;DHT22;28937;51.160;4.146;2022-09-12T16:12:46;23.40;90.30
43346;DHT22;28937;51.160;4.146;2022-09-12T16:15:14;23.40;90.40
43346;DHT22;28937;51.160;4.146;2022-09-12T16:17:40;23.40;90.40
43346;DHT22;28937;51.160;4.146;2022-09-12T16:20:06;23.50;90.20
43346;DHT22;28937;51.160;4.146;2022-09-12T16:22:32;23.50;90.50
43346;DHT22;28937;51.160;4.146;2022-09-12T16:24:57;23.50;90.60
43346;DHT22;28937;51.160;4.146;2022-09-12T16:27:23;23.50;90.60
43346;DHT22;28937;51.160;4.146;2022-09-12T16:29:48;23.50;90.80
43346;DHT22;28937;51.160;4.146;2022-09-12T16:32:15;23.50;90.90
43346;DHT22;28937;51.160;4.146;2022-09-12T16:34:41;23.50;91.00
43346;DHT22;28937;51.160;4.146;2022-09-12T16:37:06;23.50;91.20
43346;DHT22;28937;51.160;4.146;2022-09-12T16:39:32;23.50;91.40
43346;DHT22;28937;51.160;4.146;2022-09-12T16:41:59;23.50;91.80
43346;DHT22;28937;51.160;4.146;2022-09-12T16:44:24;23.50;91.90
43346;DHT22;28937;51.160;4.146;2022-09-12T16:46:50;23.50;92.10
43346;DHT22;28937;51.160;4.146;2022-09-12T16:49:16;23.60;92.50
43346;DHT22;28937;51.160;4.146;2022-09-12T16:51:41;23.60;92.30
43346;DHT22;28937;51.160;4.146;2022-09-12T16:54:15;23.60;92.20
43346;DHT22;28937;51.160;4.146;2022-09-12T16:56:41;23.60;92.10
43346;DHT22;28937;51.160;4.146;2022-09-12T16:59:07;23.60;92.20
43346;DHT22;28937;51.160;4.146;2022-09-12T17:01:36;23.60;92.30
43346;DHT22;28937;51.160;4.146;2022-09-12T17:04:02;23.60;92.30
43346;DHT22;28937;51.160;4.146;2022-09-12T17:06:29;23.70;92.20
43346;DHT22;28937;51.160;4.146;2022-09-12T17:08:57;23.60;92.10
43346;DHT22;28937;51.160;4.146;2022-09-12T17:11:31;23.60;91.80
43346;DHT22;28937;51.160;4.146;2022-09-12T17:13:59;23.60;91.90
43346;DHT22;28937;51.160;4.146;2022-09-12T17:16:25;23.60;91.90
43346;DHT22;28937;51.160;4.146;2022-09-12T17:18:53;23.60;91.70
43346;DHT22;28937;51.160;4.146;2022-09-12T17:21:19;23.60;91.30
43346;DHT22;28937;51.160;4.146;2022-09-12T17:23:45;23.60;91.40
43346;DHT22;28937;51.160;4.146;2022-09-12T17:26:11;23.60;91.50
43346;DHT22;28937;51.160;4.146;2022-09-12T17:28:38;23.60;91.40
43346;DHT22;28937;51.160;4.146;2022-09-12T17:31:05;23.60;91.40
43346;DHT22;28937;51.160;4.146;2022-09-12T17:33:32;23.60;91.50
43346;DHT22;28937;51.160;4.146;2022-09-12T17:36:17;23.60;91.50
43346;DHT22;28937;51.160;4.146;2022-09-12T17:38:43;23.60;91.70
43346;DHT22;28937;51.160;4.146;2022-09-12T17:41:15;23.60;91.80
43346;DHT22;28937;51.160;4.146;2022-09-12T17:43:46;23.60;91.80
43346;DHT22;28937;51.160;4.146;2022-09-12T17:46:12;23.60;91.90
43346;DHT22;28937;51.160;4.146;2022-09-12T17:48:38;23.60;92.00
43346;DHT22;28937;51.160;4.146;2022-09-12T17:51:12;23.70;92.10
43346;DHT22;28937;51.160;4.146;2022-09-12T17:53:39;23.60;92.20
43346;DHT22;28937;51.160;4.146;2022-09-12T17:56:05;23.60;92.20
43346;DHT22;28937;51.160;4.146;2022-09-12T17:58:32;23.70;92.20
43346;DHT22;28937;51.160;4.146;2022-09-12T18:01:16;23.60;92.10